Time;durP1;ratioP1;P1;durP2;ratioP2;P2;SDS_P1;SDS_P2;PMS_P1;PMS_P2;Temp;Humidity;BMP_temperature;BMP_pressure;BME280_temperature;BME280_humidity;BME280_pressure;Samples;Min_cycle;Max_cycle;Signal;HPM_P1;HPM_P2
2021/03/14 00:02:12;;;;;;;2.77;0.43;;;5.20;99.90;;;;;;5108237;28;20192;-68
2021/03/14 00:04:37;;;;;;;2.60;0.82;;;5.10;99.90;;;;;;5097319;28;20187;-63
2021/03/14 00:07:04;;;;;;;2.63;0.70;;;5.10;99.90;;;;;;5114854;28;20176;-63
2021/03/14 00:09:30;;;;;;;2.35;0.60;;;5.20;99.90;;;;;;5123842;28;20227;-63
2021/03/14 00:11:56;;;;;;;2.00;0.60;;;5.10;99.90;;;;;;5125308;28;20184;-64
2021/03/14 00:14:21;;;;;;;1.90;0.30;;;5.10;99.90;;;;;;5115887;28;20187;-66
2021/03/14 00:16:47;;;;;;;1.80;0.20;;;5.10;99.90;;;;;;5106409;28;20186;-64
2021/03/14 00:19:13;;;;;;;4.50;0.43;;;5.20;99.90;;;;;;5104180;28;20199;-65
2021/03/14 00:21:38;;;;;;;1.80;0.20;;;5.10;99.90;;;;;;5114758;28;20170;-64
2021/03/14 00:24:04;;;;;;;1.90;0.47;;;5.10;99.90;;;;;;5106057;28;20171;-66
2021/03/14 00:26:29;;;;;;;1.80;0.20;;;5.10;99.90;;;;;;5105164;28;20184;-63
2021/03/14 00:28:55;;;;;;;5.30;0.47;;;5.00;99.90;;;;;;5116698;28;20192;-63
2021/03/14 00:31:20;;;;;;;1.80;0.20;;;5.00;99.90;;;;;;5095246;28;20188;-63
2021/03/14 00:33:46;;;;;;;2.30;0.40;;;5.00;99.90;;;;;;5102052;28;20199;-64
2021/03/14 00:36:11;;;;;;;1.87;0.27;;;5.00;99.90;;;;;;5088436;28;20183;-65
2021/03/14 00:38:37;;;;;;;1.90;0.20;;;5.00;99.90;;;;;;5087335;28;20207;-68
2021/03/14 00:41:08;;;;;;;2.73;0.40;;;5.00;99.90;;;;;;5107985;28;20267;-66
2021/03/14 00:43:34;;;;;;;2.20;0.40;;;4.90;99.90;;;;;;5101078;28;20220;-63
2021/03/14 00:45:59;;;;;;;1.80;0.20;;;4.90;99.90;;;;;;5078106;28;20199;-63
2021/03/14 00:48:25;;;;;;;3.13;0.87;;;4.90;99.90;;;;;;5105992;28;20180;-63
2021/03/14 00:50:50;;;;;;;1.90;0.40;;;4.90;99.90;;;;;;5096381;28;20247;-67
2021/03/14 00:53:16;;;;;;;1.80;0.20;;;4.80;99.90;;;;;;5091462;28;20286;-63
2021/03/14 00:55:41;;;;;;;1.80;0.20;;;4.90;99.90;;;;;;5108985;28;20198;-66
2021/03/14 00:58:07;;;;;;;2.87;0.53;;;4.90;99.90;;;;;;5107902;28;20211;-63
2021/03/14 01:00:33;;;;;;;1.90;0.30;;;4.90;99.90;;;;;;5093898;28;20246;-63
2021/03/14 01:02:58;;;;;;;2.10;0.30;;;4.90;99.90;;;;;;5087583;28;20261;-64
2021/03/14 01:05:24;;;;;;;3.60;0.57;;;4.90;99.90;;;;;;5083868;28;20481;-62
2021/03/14 01:07:49;;;;;;;2.80;1.17;;;4.90;99.90;;;;;;5105072;28;20187;-62
2021/03/14 01:10:16;;;;;;;4.30;0.50;;;4.90;99.90;;;;;;5093271;28;20191;-63
2021/03/14 01:12:42;;;;;;;1.90;0.30;;;4.90;99.90;;;;;;5089048;28;20212;-62
2021/03/14 01:15:10;;;;;;;4.83;0.50;;;5.00;99.90;;;;;;5097172;28;20286;-63
2021/03/14 01:17:36;;;;;;;2.88;0.40;;;5.00;99.90;;;;;;5096302;28;20468;-62
2021/03/14 01:20:11;;;;;;;3.45;0.63;;;5.00;99.90;;;;;;5092176;28;20208;-63
2021/03/14 01:22:37;;;;;;;1.92;0.30;;;5.00;99.90;;;;;;5097087;28;20203;-63
2021/03/14 01:25:04;;;;;;;2.87;0.30;;;5.00;99.90;;;;;;5087803;28;20172;-63
2021/03/14 01:27:29;;;;;;;4.57;0.93;;;5.00;99.90;;;;;;5098953;28;20191;-63
2021/03/14 01:29:55;;;;;;;2.23;0.30;;;5.00;99.90;;;;;;5087155;28;20207;-62
2021/03/14 01:32:20;;;;;;;1.80;0.20;;;5.00;99.90;;;;;;5091391;28;20215;-62
2021/03/14 01:34:48;;;;;;;2.00;0.50;;;5.00;99.90;;;;;;5090750;28;20672;-62
2021/03/14 01:37:17;;;;;;;3.38;0.90;;;5.00;99.90;;;;;;5084808;28;20704;-63
2021/03/14 01:39:44;;;;;;;1.92;0.32;;;5.00;99.90;;;;;;5088719;28;20172;-62
2021/03/14 01:42:10;;;;;;;2.35;0.60;;;5.10;99.90;;;;;;5096586;28;20277;-63
2021/03/14 01:44:36;;;;;;;2.10;0.50;;;5.00;99.90;;;;;;5086903;28;20200;-63
2021/03/14 01:47:03;;;;;;;2.87;0.50;;;5.00;99.90;;;;;;5098549;28;20187;-63
2021/03/14 01:49:29;;;;;;;3.75;0.40;;;5.00;99.90;;;;;;5090308;28;20647;-63
2021/03/14 01:51:55;;;;;;;1.80;0.20;;;5.00;99.90;;;;;;5087361;28;20199;-63
2021/03/14 01:54:20;;;;;;;2.00;0.40;;;5.00;99.90;;;;;;5088053;28;20184;-63
2021/03/14 01:56:46;;;;;;;2.87;0.90;;;5.10;99.90;;;;;;5097410;28;20520;-63
2021/03/14 01:59:12;;;;;;;1.83;0.37;;;5.10;99.90;;;;;;5089925;28;20203;-63
2021/03/14 02:01:38;;;;;;;2.20;0.40;;;5.10;99.90;;;;;;5096521;28;20177;-63
2021/03/14 02:04:04;;;;;;;2.30;0.50;;;5.10;99.90;;;;;;5088954;28;20209;-63
2021/03/14 02:06:29;;;;;;;1.87;0.30;;;5.00;99.90;;;;;;5092632;28;20181;-63
2021/03/14 02:08:55;;;;;;;1.80;0.20;;;5.10;99.90;;;;;;5092781;28;20195;-62
2021/03/14 02:11:27;;;;;;;2.30;0.90;;;5.00;99.90;;;;;;5090114;28;20188;-63
2021/03/14 02:13:55;;;;;;;1.80;0.20;;;5.10;99.90;;;;;;5093806;28;20194;-63
2021/03/14 02:16:27;;;;;;;1.80;0.20;;;5.10;99.90;;;;;;5093713;28;20183;-63
2021/03/14 02:18:58;;;;;;;2.00;0.20;;;5.20;99.90;;;;;;5090972;28;20320;-63
2021/03/14 02:21:24;;;;;;;2.20;1.00;;;5.20;99.90;;;;;;5094071;28;20316;-62
2021/03/14 02:24:05;;;;;;;1.80;0.20;;;5.20;99.90;;;;;;5094460;28;20172;-63
2021/03/14 02:26:58;;;;;;;1.80;0.20;;;5.20;99.90;;;;;;5091822;28;20184;-63
2021/03/14 02:29:24;;;;;;;2.28;0.73;;;5.10;99.90;;;;;;5096344;28;20676;-63
2021/03/14 02:31:52;;;;;;;2.05;0.38;;;5.10;99.90;;;;;;5094759;28;20216;-63
2021/03/14 02:34:23;;;;;;;1.83;0.20;;;5.10;99.90;;;;;;5086473;28;20666;-62
2021/03/14 02:36:50;;;;;;;1.80;0.20;;;5.00;99.90;;;;;;5080350;28;20184;-63
2021/03/14 02:39:19;;;;;;;2.33;0.55;;;5.10;99.90;;;;;;5089911;28;20172;-63
2021/03/14 02:41:46;;;;;;;2.33;0.55;;;5.00;99.90;;;;;;5102673;28;20218;-63
2021/03/14 02:44:14;;;;;;;1.88;0.20;;;5.00;99.90;;;;;;5111620;28;20181;-63
2021/03/14 02:46:41;;;;;;;2.33;1.13;;;5.00;99.90;;;;;;5094257;28;20183;-63
2021/03/14 02:49:07;;;;;;;5.47;0.70;;;5.00;99.90;;;;;;5098976;28;20544;-63
2021/03/14 02:51:34;;;;;;;2.53;0.70;;;5.00;99.90;;;;;;5092107;28;20176;-63
2021/03/14 02:54:01;;;;;;;1.80;0.30;;;5.00;99.90;;;;;;5081522;28;20277;-63
2021/03/14 02:56:26;;;;;;;2.10;0.60;;;5.10;99.90;;;;;;5094844;28;20183;-63
2021/03/14 02:58:53;;;;;;;5.97;0.53;;;5.00;99.90;;;;;;5092008;28;20199;-63
2021/03/14 03:01:19;;;;;;;2.30;0.43;;;5.10;99.90;;;;;;5087408;28;20539;-63
2021/03/14 03:03:45;;;;;;;2.20;0.53;;;5.10;99.90;;;;;;5091183;28;20212;-63
2021/03/14 03:06:11;;;;;;;2.20;0.50;;;5.10;99.90;;;;;;5096920;28;20187;-63
2021/03/14 03:08:38;;;;;;;2.10;0.43;;;5.10;99.90;;;;;;5104381;28;20204;-63
2021/03/14 03:11:09;;;;;;;1.80;0.20;;;5.10;99.90;;;;;;5111223;28;20187;-63
2021/03/14 03:13:35;;;;;;;6.18;0.88;;;5.10;99.90;;;;;;5094924;28;20220;-62
2021/03/14 03:16:04;;;;;;;1.85;0.28;;;5.10;99.90;;;;;;5111675;28;20186;-63
2021/03/14 03:18:29;;;;;;;3.13;0.47;;;5.10;99.90;;;;;;5095800;28;20211;-63
2021/03/14 03:20:55;;;;;;;2.80;0.53;;;5.10;99.90;;;;;;5094584;28;20169;-63
2021/03/14 03:23:21;;;;;;;2.00;0.50;;;5.10;99.90;;;;;;5090052;28;20192;-62
2021/03/14 03:25:47;;;;;;;2.10;0.50;;;5.10;99.90;;;;;;5090056;28;20668;-62
2021/03/14 03:28:13;;;;;;;2.23;0.50;;;5.10;99.90;;;;;;5080103;28;20446;-62
2021/03/14 03:30:40;;;;;;;4.47;1.52;;;5.10;99.90;;;;;;5086932;28;20184;-63
2021/03/14 03:33:05;;;;;;;2.47;0.60;;;5.10;99.90;;;;;;5090556;28;20326;-63
2021/03/14 03:35:32;;;;;;;2.30;0.47;;;5.00;99.90;;;;;;5077379;28;20233;-62
2021/03/14 03:37:58;;;;;;;1.90;0.30;;;5.00;99.90;;;;;;5085988;28;20208;-63
2021/03/14 03:40:27;;;;;;;1.80;0.20;;;5.10;99.90;;;;;;5088472;28;20176;-62
2021/03/14 03:43:22;;;;;;;3.95;1.20;;;5.20;99.90;;;;;;5082488;28;20200;-63
2021/03/14 03:45:50;;;;;;;1.85;0.30;;;5.10;99.90;;;;;;5090213;28;20187;-63
2021/03/14 03:48:21;;;;;;;2.60;1.50;;;5.10;99.90;;;;;;5089540;28;20197;-63
2021/03/14 03:50:52;;;;;;;1.80;0.20;;;5.10;99.90;;;;;;5101696;28;20186;-63
2021/03/14 03:53:18;;;;;;;1.80;0.20;;;5.10;99.90;;;;;;5085219;28;20219;-63
2021/03/14 03:55:45;;;;;;;1.80;0.20;;;5.10;99.90;;;;;;5089305;28;20184;-63
2021/03/14 03:58:11;;;;;;;3.47;1.05;;;5.10;99.90;;;;;;5086849;28;20675;-63
2021/03/14 04:00:38;;;;;;;3.95;0.50;;;5.10;99.90;;;;;;5090236;28;20187;-62
2021/03/14 04:03:04;;;;;;;2.95;0.60;;;5.10;99.90;;;;;;5092576;28;20239;-62
2021/03/14 04:05:30;;;;;;;4.13;0.70;;;5.10;99.90;;;;;;5082306;28;20172;-63
2021/03/14 04:07:57;;;;;;;4.07;0.93;;;5.10;99.90;;;;;;5088095;28;20183;-63
2021/03/14 04:10:23;;;;;;;2.80;0.55;;;5.00;99.90;;;;;;5098605;28;20184;-63
2021/03/14 04:12:51;;;;;;;2.10;0.40;;;5.00;99.90;;;;;;5096368;28;20249;-63
2021/03/14 04:15:22;;;;;;;2.63;0.52;;;5.00;99.90;;;;;;5084362;28;20180;-63
2021/03/14 04:17:48;;;;;;;3.55;1.42;;;5.00;99.90;;;;;;5082738;28;20208;-63
2021/03/14 04:20:18;;;;;;;2.47;0.68;;;5.00;99.90;;;;;;5102123;28;20179;-62
2021/03/14 04:22:46;;;;;;;2.75;0.77;;;4.90;99.90;;;;;;5087297;28;20199;-62
2021/03/14 04:25:13;;;;;;;2.13;0.80;;;4.90;99.90;;;;;;5098106;28;20176;-63
2021/03/14 04:27:40;;;;;;;2.00;0.40;;;4.90;99.90;;;;;;5089163;28;20266;-63
2021/03/14 04:30:07;;;;;;;2.00;0.40;;;4.80;99.90;;;;;;5088850;28;20222;-63
2021/03/14 04:32:34;;;;;;;2.35;0.82;;;4.80;99.90;;;;;;5094904;28;20552;-63
2021/03/14 04:35:01;;;;;;;2.03;0.30;;;4.80;99.90;;;;;;5068833;28;20250;-63
2021/03/14 04:37:27;;;;;;;1.80;0.20;;;4.80;99.90;;;;;;5089413;28;20204;-63
2021/03/14 04:39:54;;;;;;;1.80;0.20;;;4.70;99.90;;;;;;5102243;28;20179;-63
2021/03/14 04:42:20;;;;;;;1.90;0.30;;;4.70;99.90;;;;;;5066260;28;20240;-63
2021/03/14 04:44:46;;;;;;;1.90;0.20;;;4.80;99.90;;;;;;5115728;28;20176;-64
2021/03/14 04:47:12;;;;;;;1.88;0.28;;;4.70;99.90;;;;;;5090301;28;20556;-63
2021/03/14 04:49:37;;;;;;;6.77;2.27;;;4.80;99.90;;;;;;5083286;28;20312;-63
2021/03/14 04:52:05;;;;;;;1.80;0.20;;;4.70;99.90;;;;;;5089776;28;20356;-63
2021/03/14 04:54:31;;;;;;;1.90;0.30;;;4.70;99.90;;;;;;5090772;28;20230;-62
2021/03/14 04:56:58;;;;;;;2.00;0.40;;;4.70;99.90;;;;;;5086712;28;20255;-63
2021/03/14 04:59:24;;;;;;;1.90;0.35;;;4.70;99.90;;;;;;5094594;28;20434;-63
2021/03/14 05:01:51;;;;;;;2.00;0.40;;;4.70;99.90;;;;;;5086926;28;20195;-63
2021/03/14 05:04:19;;;;;;;1.85;0.20;;;4.70;99.90;;;;;;5081579;28;20188;-63
2021/03/14 05:06:46;;;;;;;2.70;0.90;;;4.70;99.90;;;;;;5086033;28;20172;-63
2021/03/14 05:09:15;;;;;;;1.83;0.20;;;4.70;99.90;;;;;;5077627;28;20180;-63
2021/03/14 05:11:43;;;;;;;3.00;0.90;;;4.70;99.90;;;;;;5089796;28;20183;-63
2021/03/14 05:14:09;;;;;;;2.00;0.52;;;4.70;99.90;;;;;;5095023;28;20231;-63
2021/03/14 05:16:36;;;;;;;1.88;0.20;;;4.70;99.90;;;;;;5089866;28;20756;-63
2021/03/14 05:19:03;;;;;;;2.33;0.60;;;4.70;99.90;;;;;;5089357;28;20210;-65
2021/03/14 05:21:30;;;;;;;1.88;0.20;;;4.70;99.90;;;;;;5099763;28;20188;-62
2021/03/14 05:23:57;;;;;;;2.00;0.43;;;4.70;99.90;;;;;;5095360;28;20662;-63
2021/03/14 05:26:23;;;;;;;1.90;0.30;;;4.70;99.90;;;;;;5085834;28;20185;-63
2021/03/14 05:28:50;;;;;;;2.25;0.50;;;4.70;99.90;;;;;;5092891;28;20187;-63
2021/03/14 05:31:34;;;;;;;2.10;0.30;;;4.70;99.90;;;;;;5094866;28;20189;-63
2021/03/14 05:34:02;;;;;;;1.90;0.20;;;4.70;99.90;;;;;;5061611;28;20219;-62
2021/03/14 05:36:29;;;;;;;1.80;0.30;;;4.70;99.90;;;;;;5095007;28;20197;-62
2021/03/14 05:38:56;;;;;;;2.75;0.75;;;4.70;99.90;;;;;;5082059;28;20200;-62
2021/03/14 05:41:24;;;;;;;3.28;0.60;;;4.70;99.90;;;;;;5082295;28;20674;-63
2021/03/14 05:43:50;;;;;;;2.00;0.50;;;4.70;99.90;;;;;;5103892;28;20380;-62
2021/03/14 05:46:17;;;;;;;4.20;0.87;;;4.70;99.90;;;;;;5089687;28;20183;-63
2021/03/14 05:48:45;;;;;;;3.97;0.85;;;4.70;99.90;;;;;;5081716;28;20454;-63
2021/03/14 05:51:20;;;;;;;4.90;0.50;;;4.60;99.90;;;;;;5093895;28;20192;-63
2021/03/14 05:53:49;;;;;;;1.80;0.20;;;4.60;99.90;;;;;;5088943;28;20203;-64
2021/03/14 05:56:14;;;;;;;1.90;0.30;;;4.60;99.90;;;;;;5091523;28;20184;-63
2021/03/14 05:58:41;;;;;;;2.10;0.33;;;4.70;99.90;;;;;;5088119;28;20205;-63
2021/03/14 06:01:11;;;;;;;1.90;0.30;;;4.60;99.90;;;;;;5084916;28;20184;-63
2021/03/14 06:03:37;;;;;;;1.90;0.30;;;4.60;99.90;;;;;;5092350;28;20207;-63
2021/03/14 06:06:07;;;;;;;2.70;0.70;;;4.60;99.90;;;;;;5089593;28;20172;-63
2021/03/14 06:08:33;;;;;;;1.90;0.28;;;4.50;99.90;;;;;;5080052;28;20188;-63
2021/03/14 06:11:04;;;;;;;2.10;0.43;;;4.50;99.90;;;;;;5086217;28;20179;-63
2021/03/14 06:13:30;;;;;;;1.83;0.30;;;4.50;99.90;;;;;;5078628;28;20208;-63
2021/03/14 06:15:56;;;;;;;2.20;0.70;;;4.50;99.90;;;;;;5089988;28;20217;-63
2021/03/14 06:18:22;;;;;;;2.10;0.73;;;4.40;99.90;;;;;;5095379;28;20549;-63
2021/03/14 06:20:48;;;;;;;1.90;0.30;;;4.40;99.90;;;;;;5082928;28;20180;-63
2021/03/14 06:23:15;;;;;;;2.30;0.67;;;4.40;99.90;;;;;;5080550;28;20199;-63
2021/03/14 06:25:46;;;;;;;2.22;0.60;;;4.40;99.90;;;;;;5095173;28;20180;-63
2021/03/14 06:28:13;;;;;;;2.30;0.65;;;4.40;99.90;;;;;;5079257;28;20180;-63
2021/03/14 06:30:40;;;;;;;2.80;1.02;;;4.50;99.90;;;;;;5087608;28;20187;-63
2021/03/14 06:33:11;;;;;;;1.80;0.20;;;4.50;99.90;;;;;;5093131;28;20702;-63
2021/03/14 06:35:44;;;;;;;1.90;0.50;;;4.50;99.90;;;;;;5099441;28;20229;-62
2021/03/14 06:38:29;;;;;;;1.85;0.20;;;4.50;99.90;;;;;;5091224;28;20743;-63
2021/03/14 06:41:06;;;;;;;1.90;0.30;;;4.60;99.90;;;;;;5090862;28;20673;-62
2021/03/14 06:43:41;;;;;;;1.85;0.20;;;4.60;99.90;;;;;;5090255;28;20203;-62
2021/03/14 06:46:30;;;;;;;1.80;0.20;;;4.60;99.90;;;;;;5091009;28;20650;-66
2021/03/14 06:49:12;;;;;;;2.00;0.40;;;4.60;99.90;;;;;;5084739;28;20234;-63
2021/03/14 06:51:46;;;;;;;14.45;1.55;;;4.60;99.90;;;;;;5088473;28;20232;-63
2021/03/14 06:54:33;;;;;;;1.83;0.20;;;4.70;99.90;;;;;;5091494;28;20317;-63
2021/03/14 06:57:12;;;;;;;1.83;0.30;;;4.70;99.90;;;;;;5084267;28;20207;-63
2021/03/14 06:59:59;;;;;;;1.80;0.20;;;4.70;99.90;;;;;;5094275;28;20186;-63
2021/03/14 07:02:32;;;;;;;3.55;1.00;;;4.80;99.90;;;;;;5099270;28;20199;-62
2021/03/14 07:05:04;;;;;;;1.88;0.20;;;4.90;99.90;;;;;;5091787;28;20201;-62
2021/03/14 07:07:33;;;;;;;4.18;1.48;;;4.90;99.90;;;;;;5098167;28;20182;-63
2021/03/14 07:10:11;;;;;;;1.85;0.20;;;4.90;99.90;;;;;;5102294;28;20183;-63
2021/03/14 07:12:45;;;;;;;5.60;0.63;;;5.00;99.90;;;;;;5084098;28;20252;-62
2021/03/14 07:15:10;;;;;;;3.35;1.15;;;5.10;99.90;;;;;;5087169;28;20211;-63
2021/03/14 07:17:36;;;;;;;4.53;3.13;;;5.10;99.90;;;;;;5092750;28;20199;-63
2021/03/14 07:20:07;;;;;;;3.30;1.00;;;5.10;99.90;;;;;;5081311;28;20208;-62
2021/03/14 07:22:33;;;;;;;4.43;1.73;;;5.20;99.90;;;;;;5099461;28;20218;-63
2021/03/14 07:24:58;;;;;;;4.70;0.77;;;5.20;99.90;;;;;;5100619;28;20627;-63
2021/03/14 07:27:29;;;;;;;1.83;0.30;;;5.20;99.90;;;;;;5086361;28;20440;-63
2021/03/14 07:29:56;;;;;;;3.20;0.80;;;5.10;99.90;;;;;;5096603;28;20187;-63
2021/03/14 07:32:22;;;;;;;2.80;0.52;;;5.10;99.90;;;;;;5101423;28;20215;-62
2021/03/14 07:34:48;;;;;;;2.70;0.60;;;5.10;99.90;;;;;;5093652;28;20214;-63
2021/03/14 07:37:14;;;;;;;1.90;0.37;;;5.10;99.90;;;;;;5093571;28;20204;-62
2021/03/14 07:39:41;;;;;;;3.65;1.33;;;5.10;99.90;;;;;;5095766;28;20176;-62
2021/03/14 07:42:07;;;;;;;4.38;0.50;;;5.20;99.90;;;;;;5090078;28;20215;-63
2021/03/14 07:44:33;;;;;;;2.65;0.85;;;5.20;99.90;;;;;;5098855;28;20267;-63
2021/03/14 07:47:00;;;;;;;1.90;0.30;;;5.30;99.90;;;;;;5086891;28;20361;-63
2021/03/14 07:49:27;;;;;;;2.85;0.60;;;5.30;99.90;;;;;;5090866;28;20207;-63
2021/03/14 07:52:01;;;;;;;1.88;0.28;;;5.40;99.90;;;;;;5094738;28;20282;-63
2021/03/14 07:54:43;;;;;;;1.80;0.30;;;5.50;99.90;;;;;;5081771;28;20180;-63
2021/03/14 07:57:11;;;;;;;1.90;0.30;;;5.50;99.90;;;;;;5084252;28;20263;-63
2021/03/14 07:59:37;;;;;;;2.50;0.65;;;5.60;99.90;;;;;;5086279;28;20532;-63
2021/03/14 08:02:18;;;;;;;2.77;0.73;;;5.60;99.90;;;;;;5089037;28;20245;-63
2021/03/14 08:04:50;;;;;;;1.80;0.22;;;5.60;99.90;;;;;;5090552;28;20199;-63
2021/03/14 08:07:36;;;;;;;3.55;1.10;;;5.70;99.90;;;;;;5101856;28;20234;-63
2021/03/14 08:10:04;;;;;;;3.35;0.88;;;5.80;99.90;;;;;;5104961;28;20191;-63
2021/03/14 08:12:37;;;;;;;4.57;1.95;;;5.80;99.90;;;;;;5092699;28;20236;-63
2021/03/14 08:15:23;;;;;;;1.80;0.20;;;5.90;99.90;;;;;;5099443;28;20551;-63
2021/03/14 08:17:49;;;;;;;1.80;0.20;;;6.00;99.90;;;;;;5091217;28;20206;-64
2021/03/14 08:20:20;;;;;;;4.00;1.20;;;6.00;99.90;;;;;;5083321;28;20237;-63
2021/03/14 08:22:47;;;;;;;2.90;0.98;;;6.00;99.90;;;;;;5086864;28;20211;-63
2021/03/14 08:25:22;;;;;;;3.00;1.15;;;6.10;99.90;;;;;;5106365;28;20646;-63
2021/03/14 08:27:55;;;;;;;2.65;0.70;;;6.20;99.90;;;;;;5086751;28;20183;-63
2021/03/14 08:30:30;;;;;;;2.60;0.88;;;6.20;99.90;;;;;;5090477;28;20181;-63
2021/03/14 08:33:17;;;;;;;1.90;0.35;;;6.20;99.90;;;;;;5096636;28;20210;-63
2021/03/14 08:35:45;;;;;;;3.75;1.15;;;6.20;99.90;;;;;;5089364;28;20183;-63
2021/03/14 08:38:32;;;;;;;3.25;1.23;;;6.20;99.90;;;;;;5090125;28;20200;-63
2021/03/14 08:41:39;;;;;;;1.83;0.30;;;6.20;99.90;;;;;;5095875;28;20230;-64
2021/03/14 08:44:07;;;;;;;1.80;0.20;;;6.20;99.90;;;;;;5087891;28;20263;-63
2021/03/14 08:46:48;;;;;;;1.80;0.20;;;6.10;99.90;;;;;;5091321;28;20207;-64
2021/03/14 08:49:14;;;;;;;4.15;0.98;;;6.10;99.90;;;;;;5086101;28;20551;-63
2021/03/14 08:51:41;;;;;;;1.90;0.30;;;6.00;99.90;;;;;;5088979;28;20208;-64
2021/03/14 08:54:07;;;;;;;3.38;0.80;;;6.00;99.90;;;;;;5085872;28;20184;-63
2021/03/14 08:56:33;;;;;;;2.27;0.87;;;6.00;99.90;;;;;;5082235;28;20195;-64
2021/03/14 08:59:09;;;;;;;2.22;0.55;;;6.00;99.90;;;;;;5082090;28;20204;-64
2021/03/14 09:01:35;;;;;;;1.90;0.45;;;6.00;99.90;;;;;;5082458;28;20237;-67
2021/03/14 09:04:15;;;;;;;1.80;0.20;;;6.00;99.90;;;;;;5092847;28;20647;-65
2021/03/14 09:06:41;;;;;;;6.45;1.10;;;6.10;99.90;;;;;;5083845;28;20201;-65
2021/03/14 09:09:11;;;;;;;4.77;1.87;;;6.10;99.90;;;;;;5091236;28;20196;-65
2021/03/14 09:11:39;;;;;;;3.80;1.02;;;6.10;99.90;;;;;;5077787;28;20525;-65
2021/03/14 09:14:22;;;;;;;1.80;0.40;;;6.10;99.90;;;;;;5098686;28;20529;-65
2021/03/14 09:16:51;;;;;;;1.80;0.30;;;6.10;99.90;;;;;;5091064;28;20554;-65
2021/03/14 09:19:31;;;;;;;2.92;0.90;;;6.30;99.90;;;;;;5089511;28;20540;-65
2021/03/14 09:22:02;;;;;;;1.80;0.20;;;6.30;99.90;;;;;;5091620;28;20198;-66
2021/03/14 09:24:45;;;;;;;2.63;0.63;;;6.30;99.90;;;;;;5087906;28;20222;-65
2021/03/14 09:27:16;;;;;;;2.43;0.33;;;6.30;99.90;;;;;;5084873;28;20540;-67
2021/03/14 09:29:41;;;;;;;10.67;1.80;;;6.40;99.90;;;;;;5107985;28;20932;-66
2021/03/14 09:32:36;;;;;;;1.80;0.20;;;6.40;99.90;;;;;;5089707;28;20453;-63
2021/03/14 09:35:27;;;;;;;1.80;0.20;;;6.40;99.90;;;;;;5084992;28;20203;-63
2021/03/14 09:38:14;;;;;;;4.45;1.70;;;6.40;99.90;;;;;;5085935;28;20204;-64
2021/03/14 09:40:41;;;;;;;4.82;0.95;;;6.50;99.90;;;;;;5087044;28;20203;-64
2021/03/14 09:43:16;;;;;;;3.83;1.20;;;6.50;99.90;;;;;;5083649;28;20206;-66
2021/03/14 09:45:45;;;;;;;1.90;0.50;;;6.50;99.90;;;;;;5083306;28;20429;-64
2021/03/14 09:48:13;;;;;;;3.10;1.02;;;6.60;99.90;;;;;;5079365;28;20255;-65
2021/03/14 09:50:43;;;;;;;4.40;1.65;;;6.60;99.90;;;;;;5086412;28;20689;-65
2021/03/14 09:53:09;;;;;;;1.85;0.30;;;6.60;99.90;;;;;;5084999;28;20200;-65
2021/03/14 09:55:38;;;;;;;4.15;1.10;;;6.60;99.90;;;;;;5079604;28;20618;-65
2021/03/14 09:58:07;;;;;;;3.40;1.60;;;6.70;99.90;;;;;;5088920;28;20204;-66
2021/03/14 10:00:33;;;;;;;1.83;0.20;;;6.80;99.90;;;;;;5096532;28;20436;-65
2021/03/14 10:03:08;;;;;;;3.87;1.93;;;6.90;99.90;;;;;;5097714;28;20192;-67
2021/03/14 10:05:44;;;;;;;2.78;1.45;;;6.90;99.90;;;;;;5100466;28;20239;-64
2021/03/14 10:08:14;;;;;;;1.80;0.20;;;6.90;99.90;;;;;;5092576;28;20665;-64
2021/03/14 10:10:40;;;;;;;3.47;1.30;;;6.90;99.90;;;;;;5107554;28;20520;-64
2021/03/14 10:13:07;;;;;;;1.97;0.43;;;6.80;99.90;;;;;;5086476;28;20527;-64
2021/03/14 10:15:34;;;;;;;2.17;0.45;;;6.80;99.90;;;;;;5091164;28;20438;-64
2021/03/14 10:18:01;;;;;;;5.30;1.47;;;6.90;99.90;;;;;;5110677;28;20203;-64
2021/03/14 10:20:27;;;;;;;3.10;1.48;;;6.80;99.90;;;;;;5092639;28;20508;-66
2021/03/14 10:23:04;;;;;;;3.53;1.23;;;6.70;99.90;;;;;;5112048;28;20222;-68
2021/03/14 10:25:33;;;;;;;2.20;0.80;;;6.60;99.90;;;;;;5090491;28;20434;-65
2021/03/14 10:28:17;;;;;;;2.83;0.40;;;6.70;99.90;;;;;;5095941;28;20540;-65
2021/03/14 10:30:45;;;;;;;4.60;1.80;;;6.80;99.90;;;;;;5096046;28;20259;-64
2021/03/14 10:33:13;;;;;;;2.47;1.10;;;6.80;99.90;;;;;;5070504;28;20631;-65
2021/03/14 10:35:40;;;;;;;1.90;0.43;;;6.90;99.90;;;;;;5083860;28;20210;-65
2021/03/14 10:38:15;;;;;;;2.60;1.15;;;7.00;99.90;;;;;;5079210;28;20568;-64
2021/03/14 10:40:41;;;;;;;3.00;1.05;;;7.10;99.90;;;;;;5084103;28;20258;-64
2021/03/14 10:43:24;;;;;;;4.00;1.60;;;7.00;99.90;;;;;;5080540;28;20220;-64
2021/03/14 10:45:51;;;;;;;2.20;0.43;;;7.00;99.90;;;;;;5084473;28;20826;-66
2021/03/14 10:48:18;;;;;;;4.53;0.67;;;7.10;99.90;;;;;;5082367;28;20913;-64
2021/03/14 10:50:43;;;;;;;2.10;0.57;;;7.10;99.90;;;;;;5083979;28;21073;-66
2021/03/14 10:53:15;;;;;;;3.57;1.40;;;7.00;99.90;;;;;;5087537;28;20517;-65
2021/03/14 10:55:42;;;;;;;2.07;0.73;;;7.10;99.90;;;;;;5071924;28;20951;-65
2021/03/14 10:58:11;;;;;;;3.03;1.53;;;7.10;99.90;;;;;;5080158;28;20512;-65
2021/03/14 11:00:41;;;;;;;2.77;1.03;;;7.20;99.90;;;;;;5091224;28;20444;-65
2021/03/14 11:03:12;;;;;;;5.97;2.40;;;7.30;99.90;;;;;;5095798;28;20815;-65
2021/03/14 11:05:39;;;;;;;2.93;1.30;;;7.30;99.90;;;;;;5087178;28;20461;-66
2021/03/14 11:08:05;;;;;;;4.78;1.70;;;7.30;99.90;;;;;;5075940;28;20536;-65
2021/03/14 11:10:31;;;;;;;2.50;1.07;;;7.20;99.90;;;;;;5084186;28;20340;-65
2021/03/14 11:12:57;;;;;;;2.27;0.60;;;7.10;99.90;;;;;;5083082;28;20201;-65
2021/03/14 11:15:28;;;;;;;6.33;2.93;;;7.00;99.90;;;;;;5094232;28;20435;-65
2021/03/14 11:17:56;;;;;;;1.80;0.20;;;7.00;99.90;;;;;;5089017;28;20678;-64
2021/03/14 11:20:23;;;;;;;2.05;0.60;;;7.00;99.90;;;;;;5090789;28;20199;-66
2021/03/14 11:22:54;;;;;;;3.50;1.03;;;7.10;99.90;;;;;;5087081;28;20863;-65
2021/03/14 11:25:22;;;;;;;2.00;0.40;;;7.20;99.90;;;;;;5075749;28;20430;-65
2021/03/14 11:27:48;;;;;;;2.00;0.40;;;7.20;99.90;;;;;;5091383;28;20904;-64
2021/03/14 11:30:16;;;;;;;7.70;1.90;;;7.20;99.90;;;;;;5091154;28;20465;-65
2021/03/14 11:32:41;;;;;;;3.17;0.32;;;7.30;99.90;;;;;;5089388;28;20464;-64
2021/03/14 11:35:08;;;;;;;4.30;1.10;;;7.40;99.90;;;;;;5106340;28;20179;-68
2021/03/14 11:37:34;;;;;;;3.70;0.70;;;7.50;99.90;;;;;;5101335;28;20256;-66
2021/03/14 11:39:59;;;;;;;6.17;1.60;;;7.50;99.90;;;;;;5074879;28;20445;-65
2021/03/14 11:42:25;;;;;;;1.80;0.20;;;7.40;99.90;;;;;;5098131;28;20211;-67
2021/03/14 11:44:50;;;;;;;2.37;0.93;;;7.40;99.90;;;;;;5083523;28;20218;-65
2021/03/14 11:47:16;;;;;;;2.20;0.60;;;7.20;99.90;;;;;;5087770;28;20184;-67
2021/03/14 11:49:42;;;;;;;1.90;0.30;;;7.20;99.90;;;;;;5095093;28;20184;-66
2021/03/14 11:52:07;;;;;;;2.00;0.47;;;7.10;99.90;;;;;;5078339;28;20291;-66
2021/03/14 11:54:33;;;;;;;2.80;1.03;;;7.00;99.90;;;;;;5092665;28;20187;-65
2021/03/14 11:56:59;;;;;;;1.80;0.30;;;7.00;99.90;;;;;;5090394;28;20263;-63
2021/03/14 11:59:24;;;;;;;2.93;0.87;;;6.90;99.90;;;;;;5081092;28;20212;-66
2021/03/14 12:01:50;;;;;;;4.37;1.50;;;6.90;99.90;;;;;;5087663;28;20212;-65
2021/03/14 12:04:17;;;;;;;4.70;1.63;;;6.90;99.90;;;;;;5087317;28;20196;-64
2021/03/14 12:06:43;;;;;;;3.30;1.50;;;6.80;99.90;;;;;;5080883;28;20528;-65
2021/03/14 12:09:08;;;;;;;4.20;1.87;;;6.80;99.90;;;;;;5082743;28;20267;-63
2021/03/14 12:11:35;;;;;;;2.67;0.90;;;6.70;99.90;;;;;;5090185;28;20218;-63
2021/03/14 12:14:01;;;;;;;4.35;1.33;;;6.70;99.90;;;;;;5082829;28;20834;-64
2021/03/14 12:16:26;;;;;;;2.83;0.93;;;6.70;99.90;;;;;;5088842;28;20211;-64
2021/03/14 12:18:52;;;;;;;2.00;0.50;;;6.80;99.90;;;;;;5085790;28;20902;-64
2021/03/14 12:21:18;;;;;;;2.40;0.77;;;6.80;99.90;;;;;;5083251;28;20271;-63
2021/03/14 12:23:44;;;;;;;2.87;0.97;;;6.90;99.90;;;;;;5084085;28;20550;-62
2021/03/14 12:26:10;;;;;;;2.63;0.50;;;7.00;99.90;;;;;;5096837;28;20193;-66
2021/03/14 12:28:35;;;;;;;1.80;0.20;;;7.10;99.90;;;;;;5084732;28;20521;-65
2021/03/14 12:31:01;;;;;;;2.90;1.40;;;7.20;99.90;;;;;;5089691;28;20191;-65
2021/03/14 12:33:27;;;;;;;3.07;0.70;;;7.20;99.90;;;;;;5081137;28;20342;-65
2021/03/14 12:35:53;;;;;;;4.93;1.30;;;7.40;99.90;;;;;;5089725;28;20255;-65
2021/03/14 12:38:19;;;;;;;3.03;1.10;;;7.50;99.90;;;;;;5084249;28;20903;-65
2021/03/14 12:40:46;;;;;;;2.67;1.00;;;7.60;99.90;;;;;;5094820;28;20441;-65
2021/03/14 12:43:20;;;;;;;1.80;0.30;;;7.80;99.90;;;;;;5086702;28;20462;-64
2021/03/14 12:45:49;;;;;;;3.10;0.77;;;7.90;99.90;;;;;;5082496;28;20881;-65
2021/03/14 12:48:16;;;;;;;2.20;0.67;;;7.90;99.90;;;;;;5086731;28;20439;-65
2021/03/14 12:50:42;;;;;;;2.07;0.60;;;7.90;99.90;;;;;;5086472;28;20468;-63
2021/03/14 12:53:07;;;;;;;1.80;0.20;;;8.00;99.90;;;;;;5091140;28;20573;-63
2021/03/14 12:55:33;;;;;;;1.80;0.20;;;8.10;99.90;;;;;;5083619;28;20238;-64
2021/03/14 12:57:58;;;;;;;1.80;0.20;;;8.00;99.90;;;;;;5082463;28;20217;-64
2021/03/14 13:00:24;;;;;;;2.20;0.40;;;7.90;99.90;;;;;;5087146;28;20177;-64
2021/03/14 13:02:50;;;;;;;2.10;0.50;;;7.70;99.90;;;;;;5087102;28;20230;-64
2021/03/14 13:05:15;;;;;;;2.00;0.40;;;7.50;99.90;;;;;;5082469;28;20184;-65
2021/03/14 13:07:41;;;;;;;2.00;0.40;;;7.40;99.90;;;;;;5094760;28;20185;-64